createdAt,value
2023-07-24T00:00:47.504Z,20.01
2023-07-24T00:03:32.920Z,20.20
2023-07-24T00:06:18.556Z,20.16
2023-07-24T00:09:04.289Z,20.21
2023-07-24T00:11:50.034Z,20.23
2023-07-24T00:14:35.856Z,20.34
2023-07-24T00:17:21.437Z,20.21
2023-07-24T00:20:07.853Z,20.16
2023-07-24T00:22:53.661Z,20.20
2023-07-24T00:25:38.971Z,20.08
2023-07-24T00:28:24.750Z,20.05
2023-07-24T00:31:10.294Z,19.98
2023-07-24T00:33:55.961Z,20.08
2023-07-24T00:36:41.858Z,20.05
2023-07-24T00:39:29.392Z,20.09
2023-07-24T00:42:14.713Z,20.16
2023-07-24T00:45:01.925Z,20.28
2023-07-24T00:47:49.024Z,20.22
2023-07-24T00:50:36.931Z,20.03
2023-07-24T00:53:22.321Z,19.94
2023-07-24T00:56:08.111Z,19.98
2023-07-24T00:58:56.648Z,19.97
2023-07-24T01:01:43.610Z,19.97
2023-07-24T01:04:29.031Z,20.12
2023-07-24T01:07:14.474Z,20.04
2023-07-24T01:10:00.219Z,19.90
2023-07-24T01:13:06.282Z,20.05
2023-07-24T01:16:00.630Z,20.13
2023-07-24T01:18:46.878Z,20.05
2023-07-24T01:21:45.304Z,20.02
2023-07-24T01:24:37.603Z,19.90
2023-07-24T01:27:26.262Z,19.87
2023-07-24T01:30:13.122Z,20.01
2023-07-24T01:32:58.579Z,20.07
2023-07-24T01:35:44.951Z,20.11
2023-07-24T01:38:33.047Z,20.05
2023-07-24T01:41:19.386Z,20.07
2023-07-24T01:44:06.388Z,20.16
2023-07-24T01:46:51.833Z,20.29
2023-07-24T01:49:37.539Z,20.15
2023-07-24T01:52:23.204Z,20.14
2023-07-24T01:55:10.120Z,20.32
2023-07-24T01:57:55.552Z,19.91
2023-07-24T02:00:40.874Z,20.00
2023-07-24T02:03:26.403Z,20.39
2023-07-24T02:06:12.148Z,20.41
2023-07-24T02:08:57.846Z,20.51
2023-07-24T02:11:43.219Z,20.08
2023-07-24T02:14:29.062Z,19.88
2023-07-24T02:17:14.378Z,19.83
2023-07-24T02:20:00.042Z,20.25
2023-07-24T02:22:45.855Z,20.54
2023-07-24T02:25:31.481Z,20.64
2023-07-24T02:28:17.082Z,20.64
2023-07-24T02:31:02.858Z,20.52
2023-07-24T02:33:48.377Z,20.54
2023-07-24T02:36:33.719Z,20.60
2023-07-24T02:39:20.100Z,20.51
2023-07-24T02:42:05.469Z,20.61
2023-07-24T02:44:51.160Z,20.60
2023-07-24T02:47:36.993Z,20.56
2023-07-24T02:50:22.391Z,20.60
2023-07-24T02:53:08.126Z,20.57
2023-07-24T02:55:53.404Z,20.47
2023-07-24T02:58:38.911Z,20.50
2023-07-24T03:01:24.658Z,20.44
2023-07-24T03:04:10.255Z,20.51
2023-07-24T03:06:55.955Z,20.47
2023-07-24T03:09:41.298Z,20.62
2023-07-24T03:12:26.972Z,20.70
2023-07-24T03:15:12.541Z,20.71
2023-07-24T03:17:58.166Z,20.66
2023-07-24T03:20:43.689Z,20.65
2023-07-24T03:23:29.405Z,20.59
2023-07-24T03:26:14.871Z,20.50
2023-07-24T03:29:01.261Z,20.47
2023-07-24T03:31:47.049Z,20.42
2023-07-24T03:34:32.842Z,20.33
2023-07-24T03:37:18.679Z,20.30
2023-07-24T03:40:04.632Z,20.25
2023-07-24T03:42:50.251Z,20.30
2023-07-24T03:45:35.698Z,20.35
2023-07-24T03:48:21.142Z,20.36
2023-07-24T03:51:08.281Z,20.32
2023-07-24T03:53:55.199Z,20.41
2023-07-24T03:56:41.077Z,20.48
2023-07-24T03:59:26.398Z,20.53
2023-07-24T04:02:12.151Z,20.45
2023-07-24T04:04:57.650Z,20.56
2023-07-24T04:07:42.889Z,20.68
2023-07-24T04:10:29.016Z,20.63
2023-07-24T04:13:14.700Z,20.63
2023-07-24T04:16:00.511Z,20.77
2023-07-24T04:18:46.126Z,20.81
2023-07-24T04:21:31.691Z,20.66
2023-07-24T04:24:17.419Z,20.57
2023-07-24T04:27:02.824Z,20.65
2023-07-24T04:29:48.495Z,20.54
2023-07-24T04:32:33.978Z,20.00
2023-07-24T04:35:19.747Z,19.99
2023-07-24T04:38:05.055Z,20.47
2023-07-24T04:40:50.596Z,20.82
2023-07-24T04:43:36.440Z,20.85
2023-07-24T04:46:21.917Z,21.10
2023-07-24T04:49:07.727Z,21.31
2023-07-24T04:51:53.111Z,21.49
2023-07-24T04:54:38.396Z,21.44
2023-07-24T04:57:24.030Z,21.33
2023-07-24T05:00:10.046Z,20.70
2023-07-24T05:02:55.509Z,20.65
2023-07-24T05:05:45.034Z,20.65
2023-07-24T05:08:32.239Z,21.41
2023-07-24T05:11:18.019Z,21.17
2023-07-24T05:14:03.449Z,21.34
2023-07-24T05:16:48.976Z,22.30
2023-07-24T05:19:34.666Z,22.70
2023-07-24T05:22:20.345Z,23.64
2023-07-24T05:25:06.409Z,23.20
2023-07-24T05:27:52.013Z,22.73
2023-07-24T05:30:37.461Z,22.45
2023-07-24T05:33:22.988Z,22.28
2023-07-24T05:36:08.827Z,22.67
2023-07-24T05:38:54.200Z,23.94
2023-07-24T05:41:41.107Z,23.96
2023-07-24T05:44:27.114Z,23.38
2023-07-24T05:47:12.548Z,24.67
2023-07-24T05:49:58.090Z,24.48
2023-07-24T05:52:43.491Z,24.62
2023-07-24T05:55:29.157Z,24.35
2023-07-24T05:58:15.516Z,23.98
2023-07-24T06:01:01.550Z,23.98
2023-07-24T06:03:46.999Z,23.78
2023-07-24T06:06:32.931Z,23.58
2023-07-24T06:09:21.827Z,24.00
2023-07-24T06:12:08.081Z,24.83
2023-07-24T06:14:53.725Z,24.57
2023-07-24T06:17:39.656Z,24.23
2023-07-24T06:20:25.117Z,24.55
2023-07-24T06:23:10.896Z,24.53
2023-07-24T06:25:56.443Z,24.14
2023-07-24T06:28:42.170Z,23.72
2023-07-24T06:31:27.909Z,23.68
2023-07-24T06:34:13.720Z,23.91
2023-07-24T06:37:09.099Z,23.58
2023-07-24T06:39:58.789Z,23.51
2023-07-24T06:42:44.277Z,23.46
2023-07-24T06:45:30.014Z,23.59
2023-07-24T06:48:15.591Z,23.87
2023-07-24T06:51:01.046Z,23.85
2023-07-24T06:53:46.572Z,23.78
2023-07-24T06:56:32.725Z,23.93
2023-07-24T06:59:18.573Z,23.88
2023-07-24T07:02:04.040Z,23.79
2023-07-24T07:04:49.351Z,23.45
2023-07-24T07:07:35.088Z,23.21
2023-07-24T07:10:20.423Z,23.26
2023-07-24T07:13:05.754Z,23.04
2023-07-24T07:15:51.356Z,22.95
2023-07-24T07:18:36.753Z,22.89
2023-07-24T07:21:22.441Z,22.48
2023-07-24T07:24:07.780Z,22.21
2023-07-24T07:26:53.247Z,22.22
2023-07-24T07:29:38.623Z,21.91
2023-07-24T07:32:26.071Z,21.66
2023-07-24T07:35:11.517Z,21.46
2023-07-24T07:37:57.025Z,21.27
2023-07-24T07:40:42.843Z,20.66
2023-07-24T07:43:28.428Z,39.61
2023-07-24T07:46:13.825Z,38.98
2023-07-24T07:48:59.518Z,-141.87
2023-07-24T07:51:45.078Z,49.96
2023-07-24T07:54:30.680Z,-141.87
2023-07-24T07:57:17.235Z,-141.87
2023-07-24T08:00:30.476Z,-141.87
2023-07-24T08:03:16.241Z,-141.87
2023-07-24T08:06:22.801Z,-141.87
2023-07-24T08:09:29.195Z,-141.87
2023-07-24T08:12:35.272Z,-141.87
2023-07-24T08:15:40.065Z,-141.87
2023-07-24T08:19:23.968Z,-141.87
2023-07-24T08:22:13.695Z,-141.87
2023-07-24T08:25:19.854Z,-141.87
2023-07-24T08:28:13.134Z,-141.87
2023-07-24T08:31:49.208Z,-141.87
2023-07-24T08:35:32.957Z,-141.87
2023-07-24T08:39:16.900Z,-141.87
2023-07-24T08:43:07.269Z,-141.87
2023-07-24T08:46:52.684Z,-141.87
2023-07-24T08:50:37.495Z,-141.87
2023-07-24T08:54:22.350Z,-141.87
2023-07-24T08:58:08.032Z,-141.87
2023-07-24T09:01:50.517Z,-141.87
2023-07-24T09:05:17.953Z,-141.87
2023-07-24T09:08:58.835Z,-141.87
2023-07-24T09:12:46.483Z,-141.87
2023-07-24T09:16:40.228Z,-141.87
2023-07-24T09:19:27.190Z,-141.87
2023-07-24T09:22:15.256Z,-141.87
2023-07-24T09:25:01.103Z,-141.87
2023-07-24T09:27:46.709Z,-141.87
2023-07-24T09:30:32.167Z,-141.87
2023-07-24T09:33:17.716Z,-141.87
2023-07-24T09:36:05.207Z,-141.87
2023-07-24T09:39:01.336Z,-141.87
2023-07-24T09:41:50.686Z,-141.87
2023-07-24T09:44:35.998Z,-141.87
2023-07-24T09:50:37.092Z,-141.87
2023-07-24T09:54:26.718Z,-141.87
2023-07-24T09:58:11.886Z,-141.87
2023-07-24T10:01:56.612Z,-141.87
2023-07-24T10:05:40.609Z,-141.87
2023-07-24T10:09:27.404Z,-141.87
2023-07-24T10:13:15.816Z,-141.87
2023-07-24T10:16:59.619Z,-141.87
2023-07-24T10:20:43.837Z,-141.87
2023-07-24T10:24:40.851Z,-141.87
2023-07-24T10:28:32.377Z,-141.87
2023-07-24T10:32:24.906Z,-141.87
2023-07-24T10:36:11.709Z,-141.87
2023-07-24T10:39:55.792Z,-141.87
2023-07-24T10:43:48.129Z,-141.87
2023-07-24T10:47:39.484Z,-141.87
2023-07-24T10:51:23.871Z,-141.87
2023-07-24T10:55:07.725Z,-141.87
2023-07-24T10:58:52.482Z,-141.87
2023-07-24T11:02:37.054Z,-141.87
2023-07-24T11:06:23.195Z,-141.87
2023-07-24T11:09:38.520Z,-141.87
2023-07-24T11:13:23.790Z,-141.87
2023-07-24T11:17:08.420Z,-141.87
2023-07-24T11:20:53.971Z,-141.87
2023-07-24T11:24:44.836Z,-141.87
2023-07-24T11:27:58.799Z,-141.87
2023-07-24T11:30:44.601Z,-141.87
2023-07-24T11:33:30.336Z,-141.87
2023-07-24T11:36:16.431Z,-141.87
2023-07-24T11:39:01.890Z,-141.87
2023-07-24T11:41:48.336Z,-141.87
2023-07-24T11:44:36.599Z,-141.87
2023-07-24T11:47:22.347Z,-141.87
2023-07-24T11:50:08.585Z,-141.87
2023-07-24T11:52:54.274Z,-141.87
2023-07-24T11:55:39.977Z,-141.87
2023-07-24T11:58:30.210Z,-141.87
2023-07-24T12:01:15.608Z,-141.87
2023-07-24T12:04:01.276Z,-141.87
2023-07-24T12:06:47.352Z,-141.87
2023-07-24T12:09:32.708Z,-141.87
2023-07-24T12:12:18.910Z,-141.87
2023-07-24T12:15:05.054Z,-141.87
2023-07-24T12:17:50.518Z,-141.87
2023-07-24T12:20:36.299Z,-141.87
2023-07-24T12:23:21.712Z,-141.87
2023-07-24T12:26:08.305Z,-141.87
2023-07-24T12:28:54.215Z,-141.87
2023-07-24T12:31:40.004Z,-141.87
2023-07-24T12:34:25.518Z,-141.87
2023-07-24T12:37:11.169Z,-141.87
2023-07-24T12:39:56.735Z,-141.87
2023-07-24T12:42:42.279Z,-141.87
2023-07-24T12:45:27.884Z,-141.87
2023-07-24T12:48:13.723Z,-141.87
2023-07-24T12:51:01.959Z,-141.87
2023-07-24T12:53:51.394Z,-141.87
2023-07-24T12:56:53.000Z,-141.87
2023-07-24T12:59:38.477Z,-141.87
2023-07-24T13:02:23.879Z,-141.87
2023-07-24T13:05:09.745Z,-141.87
2023-07-24T13:07:55.657Z,-141.87
2023-07-24T13:10:41.389Z,-141.87
2023-07-24T13:13:27.025Z,-141.87
2023-07-24T13:16:12.339Z,-141.87
2023-07-24T13:18:58.204Z,-141.87
2023-07-24T13:21:44.173Z,-141.87
2023-07-24T13:24:29.927Z,-141.87
2023-07-24T13:27:15.635Z,-141.87
2023-07-24T13:30:00.929Z,-141.87
2023-07-24T13:32:46.411Z,-141.87
2023-07-24T13:35:32.201Z,-141.87
2023-07-24T13:38:19.875Z,-141.87
2023-07-24T13:41:06.862Z,-141.87
2023-07-24T13:43:52.439Z,-141.87
2023-07-24T13:47:35.958Z,-141.87
2023-07-24T13:51:19.795Z,-141.87
2023-07-24T13:54:05.366Z,-141.87
2023-07-24T13:57:49.097Z,-141.87
2023-07-24T14:01:33.216Z,-141.87
2023-07-24T14:05:17.593Z,-141.87
2023-07-24T14:09:01.721Z,-141.87
2023-07-24T14:12:45.609Z,-141.87
2023-07-24T14:16:29.480Z,-141.87
2023-07-24T14:20:13.288Z,-141.87
2023-07-24T14:23:56.826Z,-141.87
2023-07-24T14:27:40.756Z,-141.87
2023-07-24T14:31:24.119Z,-141.87
2023-07-24T14:35:07.279Z,-141.87
2023-07-24T14:38:51.629Z,-141.87
2023-07-24T14:42:32.929Z,-141.87
2023-07-24T14:45:18.981Z,-141.87
2023-07-24T14:48:05.083Z,-141.87
2023-07-24T14:50:50.705Z,-141.87
2023-07-24T14:53:37.967Z,-141.87
2023-07-24T14:56:23.631Z,-141.87
2023-07-24T14:59:09.459Z,-141.87
2023-07-24T15:01:54.851Z,-141.87
2023-07-24T15:04:40.330Z,-141.87
2023-07-24T15:07:25.756Z,-141.87
2023-07-24T15:10:12.450Z,-141.87
2023-07-24T15:12:58.151Z,-141.87
2023-07-24T15:15:43.503Z,-141.87
2023-07-24T15:18:29.342Z,-141.87
2023-07-24T15:21:14.963Z,-141.87
2023-07-24T15:24:00.541Z,-141.87
2023-07-24T15:26:46.451Z,-141.87
2023-07-24T15:29:32.053Z,-141.87
2023-07-24T15:32:18.333Z,-141.87
2023-07-24T15:35:04.271Z,-141.87
2023-07-24T15:37:49.905Z,-141.87
2023-07-24T15:40:35.816Z,-141.87
2023-07-24T15:43:25.001Z,-141.87
2023-07-24T15:46:10.703Z,-141.87
2023-07-24T15:48:57.655Z,-141.87
2023-07-24T15:51:43.350Z,-141.87
2023-07-24T15:54:28.674Z,-141.87
2023-07-24T15:57:14.080Z,-141.87
2023-07-24T15:59:59.442Z,-141.87
2023-07-24T16:02:45.299Z,-141.87
2023-07-24T16:05:30.782Z,-141.87
2023-07-24T16:08:16.479Z,-141.87
2023-07-24T16:11:03.082Z,-141.87
2023-07-24T16:13:48.409Z,-141.87
2023-07-24T16:16:33.905Z,-141.87
2023-07-24T16:19:22.544Z,-141.87
2023-07-24T16:22:08.555Z,-141.87
2023-07-24T16:24:54.054Z,-141.87
2023-07-24T16:27:39.598Z,-141.87
2023-07-24T16:30:27.619Z,-141.87
2023-07-24T16:33:13.695Z,-141.87
2023-07-24T16:35:59.587Z,-141.87
2023-07-24T16:38:45.175Z,-141.87
2023-07-24T16:41:31.470Z,-141.87
2023-07-24T16:44:17.186Z,-141.87
2023-07-24T16:49:51.104Z,-141.87
2023-07-24T16:52:36.344Z,-141.87
2023-07-24T16:55:22.083Z,-141.87
2023-07-24T16:58:07.787Z,-141.87
2023-07-24T17:00:53.101Z,-141.87
2023-07-24T17:03:38.585Z,-141.87
2023-07-24T17:06:24.021Z,-141.87
2023-07-24T17:09:09.496Z,-141.87
2023-07-24T17:11:54.971Z,-141.87
2023-07-24T17:14:40.667Z,-141.87
2023-07-24T17:17:26.686Z,-141.87
2023-07-24T17:20:12.118Z,-141.87
2023-07-24T17:22:57.725Z,-141.87
2023-07-24T17:25:44.113Z,-141.87
2023-07-24T17:28:29.602Z,-141.87
2023-07-24T17:31:15.169Z,-141.87
2023-07-24T17:34:00.615Z,-141.87
2023-07-24T17:36:46.187Z,-141.87
2023-07-24T17:39:31.513Z,-141.87
2023-07-24T17:42:16.912Z,-141.87
2023-07-24T17:45:03.718Z,-141.87
2023-07-24T17:47:49.343Z,-141.87
2023-07-24T17:50:35.652Z,-141.87
2023-07-24T17:53:21.054Z,-141.87
2023-07-24T17:56:06.590Z,-141.87
2023-07-24T17:58:52.209Z,-141.87
2023-07-24T18:01:38.176Z,-141.87
2023-07-24T18:04:23.695Z,-141.87
2023-07-24T18:07:09.291Z,-141.87
2023-07-24T18:09:54.634Z,-141.87
2023-07-24T18:12:40.808Z,-141.87
2023-07-24T18:15:26.188Z,-141.87
2023-07-24T18:18:11.980Z,-141.87
2023-07-24T18:20:58.534Z,-141.87
2023-07-24T18:23:44.765Z,-141.87
2023-07-24T18:26:30.158Z,-141.87
2023-07-24T18:29:16.168Z,-141.87
2023-07-24T18:32:01.714Z,-141.87
2023-07-24T18:34:47.374Z,-141.87
2023-07-24T18:37:33.094Z,-141.87
2023-07-24T18:40:18.661Z,-141.87
2023-07-24T18:43:04.117Z,-141.87
2023-07-24T18:45:49.527Z,-141.87
2023-07-24T18:48:36.969Z,-141.87
2023-07-24T18:51:23.477Z,-141.87
2023-07-24T18:54:09.181Z,-141.87
2023-07-24T18:56:56.778Z,-141.87
2023-07-24T18:59:42.326Z,-141.87
2023-07-24T19:02:27.813Z,-141.87
2023-07-24T19:05:13.503Z,-141.87
2023-07-24T19:07:58.999Z,-141.87
2023-07-24T19:10:44.320Z,-141.87
2023-07-24T19:13:32.657Z,-141.87
2023-07-24T19:16:19.295Z,-141.87
2023-07-24T19:19:08.172Z,-141.87
2023-07-24T19:21:53.527Z,-141.87
2023-07-24T19:24:38.986Z,-141.87
2023-07-24T19:27:24.786Z,-141.87
2023-07-24T19:30:10.452Z,-141.87
2023-07-24T19:32:56.161Z,-141.87
2023-07-24T19:35:41.846Z,-141.87
2023-07-24T19:38:27.542Z,-141.87
2023-07-24T19:41:12.991Z,-141.87
2023-07-24T19:43:58.446Z,-141.87
2023-07-24T19:46:44.165Z,-141.87
2023-07-24T19:49:31.089Z,-141.87
2023-07-24T19:52:16.480Z,-141.87
2023-07-24T19:55:01.873Z,-141.87
2023-07-24T19:57:47.490Z,-141.87
2023-07-24T20:03:19.756Z,-141.87
2023-07-24T20:06:07.522Z,-141.87
2023-07-24T20:08:53.047Z,-141.87
2023-07-24T20:11:38.400Z,-141.87
2023-07-24T20:14:24.129Z,-141.87
2023-07-24T20:17:09.531Z,-141.87
2023-07-24T20:19:55.112Z,-141.87
2023-07-24T20:22:40.497Z,-141.87
2023-07-24T20:25:26.295Z,-141.87
2023-07-24T20:28:11.715Z,-141.87
2023-07-24T20:30:56.933Z,-141.87
2023-07-24T20:33:42.258Z,-141.87
2023-07-24T20:36:27.920Z,-141.87
2023-07-24T20:39:18.226Z,-141.87
2023-07-24T20:42:03.929Z,-141.87
2023-07-24T20:44:54.922Z,-141.87
2023-07-24T20:47:40.314Z,-141.87
2023-07-24T20:50:26.302Z,-141.87
2023-07-24T20:53:11.660Z,-141.87
2023-07-24T20:55:58.068Z,-141.87
2023-07-24T20:58:44.846Z,-141.87
2023-07-24T21:01:30.456Z,-141.87
2023-07-24T21:04:16.145Z,-141.87
2023-07-24T21:07:03.153Z,-141.87
2023-07-24T21:09:51.756Z,-141.87
2023-07-24T21:12:37.451Z,-141.87
2023-07-24T21:15:22.897Z,-141.87
2023-07-24T21:18:08.306Z,-141.87
2023-07-24T21:20:54.162Z,-141.87
2023-07-24T21:23:39.615Z,-141.87
2023-07-24T21:26:27.244Z,-141.87
2023-07-24T21:29:14.835Z,-141.87
2023-07-24T21:32:00.550Z,-141.87
2023-07-24T21:34:46.266Z,-141.87
2023-07-24T21:37:31.988Z,-141.87
2023-07-24T21:40:17.715Z,-141.87
2023-07-24T21:43:03.373Z,-141.87
2023-07-24T21:45:49.002Z,-141.87
2023-07-24T21:48:34.691Z,-141.87
2023-07-24T21:51:20.453Z,-141.87
2023-07-24T21:54:05.873Z,-141.87
2023-07-24T21:56:52.090Z,-141.87
2023-07-24T21:59:37.475Z,-141.87
2023-07-24T22:02:23.230Z,-141.87
2023-07-24T22:05:08.807Z,-141.87
2023-07-24T22:07:54.217Z,-141.87
2023-07-24T22:10:40.207Z,-141.87
2023-07-24T22:13:25.502Z,-141.87
2023-07-24T22:16:11.859Z,-141.87
2023-07-24T22:18:57.464Z,-141.87
2023-07-24T22:21:42.785Z,-141.87
2023-07-24T22:24:28.178Z,-141.87
2023-07-24T22:27:13.823Z,-141.87
2023-07-24T22:29:59.478Z,-141.87
2023-07-24T22:32:45.025Z,-141.87
2023-07-24T22:35:30.281Z,-141.87
2023-07-24T22:38:16.006Z,-141.87
2023-07-24T22:41:12.179Z,-141.87
2023-07-24T22:43:57.679Z,-141.87
2023-07-24T22:46:43.106Z,-141.87
2023-07-24T22:49:28.525Z,-141.87
2023-07-24T22:52:14.203Z,-141.87
2023-07-24T22:54:59.872Z,-141.87
2023-07-24T22:57:45.558Z,-141.87
2023-07-24T23:00:31.404Z,-141.87
2023-07-24T23:03:17.185Z,-141.87
2023-07-24T23:06:02.648Z,-141.87
2023-07-24T23:08:48.403Z,-141.87
2023-07-24T23:11:34.233Z,-141.87
2023-07-24T23:14:19.667Z,-141.87
2023-07-24T23:17:05.429Z,-141.87
2023-07-24T23:19:51.082Z,-141.87
2023-07-24T23:22:36.466Z,-141.87
2023-07-24T23:25:22.559Z,-141.87
2023-07-24T23:28:07.992Z,-141.87
2023-07-24T23:30:53.547Z,-141.87
2023-07-24T23:33:39.697Z,-141.87
2023-07-24T23:36:25.206Z,-141.87
2023-07-24T23:39:10.820Z,-141.87
2023-07-24T23:41:56.535Z,-141.87
2023-07-24T23:44:42.079Z,-141.87
2023-07-24T23:47:27.708Z,-141.87
2023-07-24T23:50:13.830Z,-141.87
2023-07-24T23:52:59.962Z,-141.87
2023-07-24T23:55:45.828Z,-141.87
2023-07-24T23:58:31.247Z,-141.87
